Авиационная погода в Орске

Регион: 
Погода METAR: 
UWOR 171400Z 13004MPS CAVOK 20/03 Q1017 R07/CLRD65 NOSIG RMK QFE738/0984
Время наблюдения
2021-04-17T14:00:00Z
Температура C
20.0
Точка росы
3.0
Направление ветра
130
Скорость ветра (узлы)
8
Метео видимость
6.21
Явления погоды
Условия полета
VFR
Аэропорт подробнее: